Řízení letového provozu České republiky  
Aktualizace dat:  25.06.2019 15:40:28 UTC English version
   METEO Zobrazení stránky:  25.06.2019 15:41:36 UTC  
vysvětlivky
METAR EDDB 251520Z 14011KT CAVOK 34/11 Q1020 NOSIG=
METAR EDDC 251520Z 14010KT 110V200 CAVOK 32/13 Q1021 NOSIG=
METAR EDDE 251520Z 12006KT 070V170 CAVOK 34/13 Q1020 NOSIG=
METAR EDDF 251520Z 21006KT 130V270 CAVOK 35/16 Q1018 NOSIG=
METAR EDDM 251520Z 12003KT 080V170 CAVOK 31/19 Q1022 NOSIG=
METAR EDDN 251520Z 13005KT 060V210 CAVOK 34/14 Q1021 NOSIG=
METAR EDDP 251520Z 12009KT 090V160 CAVOK 33/12 Q1020 NOSIG=
METAR EDDT 251520Z 15007KT 100V200 CAVOK 33/13 Q1020 NOSIG=
METAR EDQM 251520Z 16006KT 110V200 CAVOK 32/14 Q1023=
METAR EPBY 251530Z 13011KT 090V190 CAVOK 31/12 Q1023=
METAR EPGD 251530Z 13010KT 100V160 CAVOK 27/15 Q1024=
METAR EPKK 251530Z 09008KT 050V150 CAVOK 31/16 Q1024=
METAR EPKT 251530Z 10010KT CAVOK 31/17 Q1024=
METAR EPLL 251530Z 14008KT 100V210 CAVOK 32/15 Q1023=
METAR EPPO 251530Z 16008KT 080V170 CAVOK 33/16 Q1022=
METAR EPRZ 251530Z 11009KT 080V140 CAVOK 29/18 Q1025=
METAR EPWA 251530Z 13007KT 070V160 CAVOK 31/16 Q1024 NOSIG=
METAR EPWR 251530Z 18009KT 140V220 CAVOK 32/17 Q1022=
METAR LHBP 251530Z 10008KT 070V140 CAVOK 31/20 Q1023 NOSIG=
METAR LHSM 251515Z AUTO 10004KT 040V160 9000 NCD 30/21 Q1023 NOSIG=
METAR LKBC 251530Z AUTO 11008KT 070V150 CAVOK 29/18 Q1023=
METAR LKCV 251500Z 16011KT 120V190 CAVOK 32/18 Q1022 NOSIG RMK BLU BLU=
METAR LKKB 251500Z 13008KT 090V160 CAVOK 31/16 Q1022 NOSIG RMK BLU BLU=
METAR LKKU NIL
METAR LKKV 251530Z 15005KT 120V190 CAVOK 30/15 Q1023 RMK REG QNH 1020=
METAR LKLN 251530Z AUTO VRB04KT 9999 FEW240 31/17 Q1022=
METAR LKMT 251530Z VRB03KT CAVOK 31/19 Q1023 NOSIG RMK REG QNH 1020=
METAR LKNA 251500Z 14010KT 9999 FEW049 28/18 Q1025 NOSIG RMK BLU BLU=
METAR LKPD 251500Z 14009KT CAVOK 32/17 Q1022 NOSIG RMK BLU BLU=
METAR LKPJ 251500Z AUTO 16007KT 120V180 CAVOK 30/18 Q1023=
METAR LKPR 251530Z 13008KT 080V160 CAVOK 32/16 Q1022 NOSIG RMK REG QNH 1020=
METAR LKTB 251530Z 15008KT 120V190 CAVOK 30/19 Q1023 NOSIG RMK REG QNH 1020=
METAR LKVO 251500Z 14011KT CAVOK 32/17 Q1022=
METAR LOWI 251520Z 06009KT 030V100 CAVOK 34/13 Q1020 NOSIG=
METAR LOWL 251520Z 11006KT 060V140 9999 FEW060 32/17 Q1021 NOSIG=
METAR LOWS 251520Z 31004KT 260V050 9999 FEW060 SCT300 32/15 Q1022 NOSIG=
METAR LOWW 251520Z 14010KT 9999 FEW050 31/18 Q1023 NOSIG=
METAR LZIB 251530Z 16007KT 120V190 CAVOK 31/19 Q1023 NOSIG=
METAR LZKZ 251530Z 14003KT 100V200 CAVOK 31/17 Q1024 NOSIG=
METAR LZMC 251500Z 15008KT CAVOK 32/16 Q1024=
METAR LZPP 251530Z 14006KT CAVOK 31/18 Q1023=
METAR LZSL 251530Z 16004KT 100V210 9999 FEW060 31/19 Q1024=
METAR LZTT 251530Z 13003KT 060V200 9999 FEW053 28/17 Q1027 NOSIG=
METAR LZZI 251530Z 26007KT CAVOK 31/18 Q1024=